Time;durP1;ratioP1;P1;durP2;ratioP2;P2;SDS_P1;SDS_P2;PMS_P1;PMS_P2;Temp;Humidity;BMP_temperature;BMP_pressure;BME280_temperature;BME280_humidity;BME280_pressure;Samples;Min_cycle;Max_cycle;Signal;HPM_P1;HPM_P2
2022/01/02 00:01:37;;;;;;;15.43;8.90;;;5.80;99.90;;;5.11;100.00;97857.19;5001480;28;20168;-47
2022/01/02 00:04:04;;;;;;;15.35;8.20;;;5.70;99.90;;;5.10;100.00;97856.31;5009598;28;20117;-47
2022/01/02 00:06:36;;;;;;;12.27;7.85;;;5.70;99.90;;;5.08;100.00;97859.81;5009128;28;20029;-47
2022/01/02 00:09:06;;;;;;;13.25;8.20;;;5.70;99.90;;;5.06;100.00;97856.34;5008447;28;20595;-42
2022/01/02 00:11:33;;;;;;;11.02;6.65;;;5.70;99.90;;;5.03;100.00;97846.78;5010198;28;20045;-48
2022/01/02 00:14:07;;;;;;;11.63;6.72;;;5.70;99.90;;;5.09;100.00;97866.78;5011560;28;20033;-49
2022/01/02 00:16:36;;;;;;;10.80;6.57;;;5.80;99.90;;;5.18;100.00;97856.25;5006784;28;21608;-44
2022/01/02 00:19:08;;;;;;;11.68;6.60;;;5.90;99.90;;;5.21;100.00;97858.00;5012881;28;20072;-47
2022/01/02 00:21:41;;;;;;;9.30;6.22;;;5.90;99.90;;;5.25;100.00;97857.06;5007218;28;20109;-46
2022/01/02 00:24:13;;;;;;;9.20;6.32;;;5.90;99.90;;;5.25;100.00;97841.38;5011560;28;20030;-45
2022/01/02 00:26:42;;;;;;;9.63;5.68;;;5.90;99.90;;;5.30;100.00;97835.22;5015465;28;20033;-47
2022/01/02 00:29:09;;;;;;;13.85;6.47;;;6.00;99.90;;;5.37;100.00;97840.41;5023162;28;20044;-46
2022/01/02 00:31:35;;;;;;;9.75;6.03;;;6.00;99.90;;;5.41;100.00;97842.97;5021914;28;20538;-46
2022/01/02 00:34:03;;;;;;;10.57;6.47;;;6.00;99.90;;;5.43;100.00;97851.66;5013613;28;20041;-48
2022/01/02 00:36:28;;;;;;;10.30;6.30;;;6.00;99.90;;;5.43;100.00;97849.06;5006962;28;20111;-47
2022/01/02 00:38:55;;;;;;;10.45;6.35;;;6.00;99.90;;;5.43;100.00;97845.59;5016713;28;20030;-48
2022/01/02 00:41:31;;;;;;;10.43;6.45;;;6.00;99.90;;;5.35;100.00;97846.53;5018090;28;20815;-46
2022/01/02 00:44:52;;;;;;;14.45;6.47;;;6.00;99.90;;;5.35;100.00;97843.03;5017327;28;20025;-49
2022/01/02 00:47:35;;;;;;;10.50;6.47;;;6.00;99.90;;;5.33;100.00;97836.97;5007207;28;20037;-47
2022/01/02 00:50:09;;;;;;;8.82;5.70;;;6.00;99.90;;;5.31;100.00;97841.31;5017212;28;20079;-48
2022/01/02 00:52:39;;;;;;;8.23;5.47;;;5.90;99.90;;;5.30;100.00;97827.38;5019660;28;20065;-48
2022/01/02 00:55:08;;;;;;;8.48;5.28;;;5.90;99.90;;;5.32;100.00;97835.22;5014998;28;20034;-46
2022/01/02 00:57:38;;;;;;;8.60;5.20;;;5.90;99.90;;;5.32;100.00;97829.97;5018266;28;20491;-42
2022/01/02 01:00:15;;;;;;;8.95;5.20;;;5.90;99.90;;;5.27;100.00;97822.16;5017008;28;20113;-47
2022/01/02 01:02:48;;;;;;;7.85;5.18;;;5.90;99.90;;;5.24;100.00;97821.34;5015132;28;20025;-47
2022/01/02 01:05:30;;;;;;;9.93;5.60;;;5.80;99.90;;;5.15;100.00;97822.28;5022365;28;20037;-43
2022/01/02 01:08:03;;;;;;;11.20;6.50;;;5.80;99.90;;;5.09;100.00;97820.59;5016770;28;20611;-45
2022/01/02 01:10:33;;;;;;;10.57;5.93;;;5.80;99.90;;;5.05;100.00;97818.03;5016878;28;20503;-44
2022/01/02 01:13:03;;;;;;;9.77;6.18;;;5.70;99.90;;;5.05;100.00;97815.41;5014463;28;20033;-46
2022/01/02 01:15:31;;;;;;;12.23;6.40;;;5.70;99.90;;;5.02;100.00;97807.59;5015678;28;20036;-47
2022/01/02 01:17:59;;;;;;;10.73;5.93;;;5.70;99.90;;;5.03;100.00;97809.34;5015541;28;20035;-43
2022/01/02 01:20:30;;;;;;;9.90;6.10;;;5.60;99.90;;;5.02;100.00;97807.59;5014961;28;20542;-40
2022/01/02 01:22:56;;;;;;;11.00;5.97;;;5.70;99.90;;;5.04;100.00;97811.91;5016735;28;20046;-46
2022/01/02 01:25:23;;;;;;;9.77;6.10;;;5.70;99.90;;;5.03;100.00;97799.72;5017906;28;20073;-46
2022/01/02 01:27:52;;;;;;;8.57;5.88;;;5.70;99.90;;;5.05;100.00;97795.34;5016208;28;20179;-45
2022/01/02 01:30:24;;;;;;;10.32;5.90;;;5.70;99.90;;;5.04;100.00;97795.38;5016199;28;20029;-47
2022/01/02 01:32:49;;;;;;;9.55;5.65;;;5.70;99.90;;;4.98;100.00;97786.69;5016112;28;20025;-45
2022/01/02 01:35:15;;;;;;;10.05;5.78;;;5.70;99.90;;;4.96;100.00;97793.69;5014018;28;20107;-46
2022/01/02 01:37:41;;;;;;;9.80;5.85;;;5.60;99.90;;;4.92;100.00;97784.13;5016874;28;20135;-47
2022/01/02 01:40:11;;;;;;;9.63;6.18;;;5.60;99.90;;;4.86;100.00;97780.69;5014289;28;20530;-46
2022/01/02 01:42:43;;;;;;;11.18;6.35;;;5.60;99.90;;;4.85;100.00;97789.44;5012876;28;20045;-46
2022/01/02 01:47:54;;;;;;;10.43;5.88;;;5.50;99.90;;;4.78;100.00;97786.00;5013478;28;19939;-46
2022/01/02 01:50:26;;;;;;;10.55;5.85;;;5.40;99.90;;;4.75;100.00;97783.41;5014864;28;20044;-45
2022/01/02 01:52:53;;;;;;;8.52;5.88;;;5.40;99.90;;;4.70;100.00;97779.94;5015021;28;20063;-46
2022/01/02 01:55:19;;;;;;;8.18;5.32;;;5.40;99.90;;;4.64;100.00;97775.63;5037349;23;20071;-82
2022/01/02 01:57:45;;;;;;;9.18;5.75;;;5.40;99.90;;;4.58;100.00;97766.09;5021810;28;20455;-82
2022/01/02 02:00:17;;;;;;;9.68;5.45;;;5.30;99.90;;;4.62;100.00;97780.00;5019388;28;20288;-81
2022/01/02 02:02:44;;;;;;;9.13;5.97;;;5.30;99.90;;;4.63;100.00;97786.09;5015447;28;20083;-81
2022/01/02 02:05:11;;;;;;;9.10;5.60;;;5.30;99.90;;;4.63;100.00;97783.47;5010732;28;20461;-81
2022/01/02 02:07:40;;;;;;;12.38;5.38;;;5.30;99.90;;;4.59;100.00;97777.41;5022593;28;20033;-81
2022/01/02 02:10:34;;;;;;;7.82;4.88;;;5.30;99.90;;;4.53;100.00;97760.03;4999251;28;20025;-81
2022/01/02 02:12:58;;;;;;;9.27;5.22;;;5.30;99.90;;;4.59;100.00;97767.84;5007546;28;20053;-82
2022/01/02 02:15:25;;;;;;;8.05;5.30;;;5.20;99.90;;;4.54;100.00;97764.41;5017617;28;20132;-82
2022/01/02 02:17:52;;;;;;;11.05;5.40;;;5.20;99.90;;;4.53;100.00;97762.66;5022770;28;20837;-81
2022/01/02 02:20:26;;;;;;;8.43;5.38;;;5.30;99.90;;;4.54;100.00;97753.06;5005012;28;20067;-81
2022/01/02 02:22:55;;;;;;;8.35;5.57;;;5.20;99.90;;;4.47;100.00;97740.94;4988982;28;20090;-81
2022/01/02 02:25:34;;;;;;;7.60;4.70;;;5.30;99.90;;;4.49;100.00;97739.19;5025259;28;20160;-82
2022/01/02 02:28:14;;;;;;;7.90;5.20;;;5.20;99.90;;;4.50;100.00;97735.69;5019183;28;20037;-81
2022/01/02 02:30:44;;;;;;;7.95;4.90;;;5.20;99.90;;;4.50;100.00;97733.94;5021182;28;20068;-81
2022/01/02 02:33:10;;;;;;;6.65;4.40;;;5.20;99.90;;;4.33;100.00;97691.44;4992349;28;20112;-81
2022/01/02 02:35:39;;;;;;;8.32;4.45;;;5.20;99.90;;;4.50;100.00;97722.63;5005847;28;20032;-81
2022/01/02 02:38:07;;;;;;;9.02;4.43;;;5.20;99.90;;;4.54;100.00;97730.44;5024927;28;20290;-81
2022/01/02 02:40:34;;;;;;;6.78;4.13;;;5.20;99.90;;;4.55;100.00;97726.94;5022386;28;20029;-81
2022/01/02 02:51:23;;;;;;;7.88;4.30;;;5.20;99.90;;;4.53;100.00;97717.41;5030375;28;20049;-81
2022/01/02 02:53:51;;;;;;;7.78;4.07;;;5.20;99.90;;;4.52;100.00;97708.69;5037239;28;20049;-81
2022/01/02 02:56:24;;;;;;;8.40;4.68;;;5.20;99.90;;;4.48;100.00;97696.53;5027678;28;20061;-81
2022/01/02 02:58:55;;;;;;;6.90;4.50;;;5.20;99.90;;;4.55;100.00;97692.13;5017643;28;20041;-81
2022/01/02 03:01:24;;;;;;;6.70;4.55;;;5.20;99.90;;;4.51;100.00;97679.97;5003505;28;20047;-81
2022/01/02 03:03:50;;;;;;;6.68;4.60;;;5.20;99.90;;;4.58;100.00;97692.09;5035353;28;20068;-81
2022/01/02 03:06:17;;;;;;;7.35;4.80;;;5.20;99.90;;;4.55;100.00;97686.91;5017903;28;20040;-82
2022/01/02 03:08:45;;;;;;;8.23;4.45;;;5.20;99.90;;;4.57;100.00;97679.91;5016626;28;20029;-81
2022/01/02 03:11:17;;;;;;;10.68;5.25;;;5.20;99.90;;;4.56;100.00;97672.97;5017490;28;20486;-82
2022/01/02 03:13:45;;;;;;;9.10;4.80;;;5.30;99.90;;;4.47;100.00;97657.34;5003201;28;20040;-81
2022/01/02 03:16:11;;;;;;;7.57;4.57;;;5.30;99.90;;;4.58;100.00;97671.22;5031918;28;20465;-81
2022/01/02 03:18:38;;;;;;;7.00;5.03;;;5.30;99.90;;;4.53;100.00;97668.63;5014696;28;20514;-81
2022/01/02 03:21:05;;;;;;;8.43;5.15;;;5.30;99.90;;;4.48;100.00;97649.50;5032666;28;20045;-81
2022/01/02 03:23:30;;;;;;;6.75;4.38;;;5.30;99.90;;;4.51;100.00;97649.50;4993333;28;20033;-81
2022/01/02 03:25:56;;;;;;;8.98;5.05;;;5.30;99.90;;;4.57;100.00;97665.09;5016611;28;20069;-81
2022/01/02 03:28:22;;;;;;;9.00;5.25;;;5.30;99.90;;;4.58;100.00;97666.84;5013648;28;20028;-81
2022/01/02 03:30:49;;;;;;;7.72;4.90;;;5.30;99.90;;;4.54;100.00;97657.31;5012762;28;20092;-81
2022/01/02 03:33:15;;;;;;;6.90;4.53;;;5.30;99.90;;;4.66;100.00;97663.28;5027415;28;20097;-81
2022/01/02 03:35:41;;;;;;;6.10;3.90;;;5.30;99.90;;;4.69;100.00;97664.13;5034361;28;20137;-81
2022/01/02 03:38:08;;;;;;;5.97;3.83;;;5.30;99.90;;;4.71;100.00;97672.81;5013989;28;20047;-81
2022/01/02 03:40:33;;;;;;;6.72;3.63;;;5.40;99.90;;;4.74;100.00;97670.19;5027398;28;20038;-81
2022/01/02 03:43:00;;;;;;;4.90;2.90;;;5.40;99.90;;;4.68;100.00;97659.78;5008389;28;20124;-81
2022/01/02 03:45:26;;;;;;;4.50;3.22;;;5.40;99.90;;;4.80;100.00;97668.41;5006392;28;20519;-81
2022/01/02 03:47:51;;;;;;;4.78;2.80;;;5.40;99.90;;;4.81;100.00;97652.72;5027600;28;20065;-81
2022/01/02 03:50:17;;;;;;;4.32;2.88;;;5.50;99.90;;;4.75;100.00;97637.06;5004167;28;20041;-81
2022/01/02 03:52:43;;;;;;;4.43;2.63;;;5.50;99.90;;;4.86;100.00;97652.66;5002299;28;20045;-81
2022/01/02 03:55:10;;;;;;;4.15;2.95;;;5.50;99.90;;;4.82;100.00;97643.97;5023633;28;20041;-82
2022/01/02 03:57:36;;;;;;;4.25;2.60;;;5.50;99.90;;;4.88;100.00;97643.03;4987203;28;20068;-81
2022/01/02 04:00:07;;;;;;;4.43;2.67;;;5.50;99.90;;;4.85;100.00;97636.09;4989626;28;20037;-81
2022/01/02 04:02:34;;;;;;;4.78;3.00;;;5.50;99.90;;;4.74;100.00;97631.00;5018808;28;20041;-81
2022/01/02 04:05:00;;;;;;;5.00;3.28;;;5.50;99.90;;;4.66;100.00;97619.75;4999675;28;20029;-81
2022/01/02 04:07:26;;;;;;;6.85;3.90;;;5.50;99.90;;;4.56;100.00;97611.13;5004617;28;20499;-81
2022/01/02 04:09:52;;;;;;;5.35;3.65;;;5.40;99.90;;;4.69;100.00;97637.16;5020777;28;20045;-81
2022/01/02 04:12:17;;;;;;;5.45;3.67;;;5.40;99.90;;;4.58;100.00;97629.41;5021141;28;20029;-81
2022/01/02 04:14:43;;;;;;;5.68;3.92;;;5.40;99.90;;;4.51;100.00;97625.97;5022737;28;20505;-81
2022/01/02 04:17:09;;;;;;;7.35;4.45;;;5.30;99.90;;;4.52;100.00;97619.00;5004333;28;20108;-81
2022/01/02 04:19:35;;;;;;;6.93;4.00;;;5.20;99.90;;;4.43;100.00;97611.25;5019841;28;20033;-81
2022/01/02 04:22:00;;;;;;;7.13;4.55;;;5.30;99.90;;;4.47;100.00;97619.06;5018309;28;20037;-81
2022/01/02 04:24:26;;;;;;;6.63;4.20;;;5.20;99.90;;;4.46;100.00;97621.69;5007158;28;20079;-81
2022/01/02 04:26:52;;;;;;;5.25;3.92;;;5.20;99.90;;;4.36;100.00;97613.94;5020496;28;20044;-81
2022/01/02 04:29:17;;;;;;;7.65;4.35;;;5.20;99.90;;;4.31;100.00;97612.25;5004792;28;20052;-81
2022/01/02 04:31:43;;;;;;;7.07;4.20;;;5.10;99.90;;;4.33;100.00;97615.72;5013219;28;20017;-82
2022/01/02 04:34:09;;;;;;;5.90;4.15;;;5.10;99.90;;;4.40;100.00;97615.63;5034245;28;20042;-81
2022/01/02 04:36:34;;;;;;;5.20;3.80;;;5.10;99.90;;;4.35;100.00;97595.66;5010801;28;20120;-81
2022/01/02 04:39:00;;;;;;;5.85;3.33;;;5.10;99.90;;;4.44;100.00;97605.16;5029943;28;20033;-81
2022/01/02 04:41:26;;;;;;;6.32;3.70;;;5.20;99.90;;;4.49;100.00;97601.63;4998055;28;20048;-81
2022/01/02 04:43:51;;;;;;;6.07;4.00;;;5.20;99.90;;;4.42;100.00;97591.25;5013193;28;20037;-81
2022/01/02 04:46:17;;;;;;;6.00;3.75;;;5.30;99.90;;;4.47;100.00;97579.88;4993612;28;20095;-81
2022/01/02 04:48:43;;;;;;;6.10;4.07;;;5.30;99.90;;;4.60;100.00;97593.69;5028140;28;20033;-81
2022/01/02 04:51:08;;;;;;;7.20;4.25;;;5.40;99.90;;;4.71;100.00;97597.03;5030367;28;20034;-81
2022/01/02 04:53:37;;;;;;;6.63;4.20;;;5.40;99.90;;;4.79;100.00;97589.13;5016246;28;20037;-82
2022/01/02 04:56:03;;;;;;;5.53;3.72;;;5.50;99.90;;;4.80;100.00;97576.94;5032899;28;20041;-81
2022/01/02 04:58:29;;;;;;;6.45;4.28;;;5.50;99.90;;;4.81;100.00;97568.19;5013478;28;20035;-81
2022/01/02 05:00:55;;;;;;;6.65;3.75;;;5.60;99.90;;;4.85;100.00;97564.69;5045377;28;20037;-81
2022/01/02 05:03:20;;;;;;;8.55;4.47;;;5.60;99.90;;;4.87;100.00;97571.63;5029331;28;20030;-81
2022/01/02 05:05:46;;;;;;;7.80;3.90;;;5.70;99.90;;;5.00;100.00;97577.56;5014899;28;20038;-81
2022/01/02 05:08:12;;;;;;;5.85;3.97;;;5.70;99.90;;;4.98;100.00;97571.50;5014597;28;20683;-81
2022/01/02 05:10:37;;;;;;;5.25;3.35;;;5.70;99.90;;;5.03;100.00;97569.69;5012785;28;20052;-81
2022/01/02 05:13:03;;;;;;;7.70;4.03;;;5.80;99.90;;;4.95;100.00;97553.22;5014863;28;20036;-81
2022/01/02 05:15:29;;;;;;;6.68;4.35;;;5.80;99.90;;;5.05;100.00;97572.28;5016963;28;20026;-81
2022/01/02 05:17:54;;;;;;;7.38;4.65;;;5.80;99.90;;;5.02;100.00;97561.88;5015072;28;20052;-81
2022/01/02 05:20:20;;;;;;;7.35;4.65;;;5.80;99.90;;;4.96;100.00;97565.41;5039078;28;20037;-81
2022/01/02 05:22:46;;;;;;;6.00;4.25;;;5.70;99.90;;;4.89;100.00;97563.75;5035546;28;20052;-81
2022/01/02 05:25:11;;;;;;;5.82;3.88;;;5.70;99.90;;;4.94;100.00;97570.66;5020264;28;21866;-81
2022/01/02 05:27:37;;;;;;;6.60;4.53;;;5.70;99.90;;;4.94;100.00;97562.81;5033237;28;20032;-81
2022/01/02 05:30:04;;;;;;;7.05;4.55;;;5.60;99.90;;;4.95;100.00;97561.06;5036093;28;20037;-81
2022/01/02 05:32:29;;;;;;;6.78;4.38;;;5.60;99.90;;;4.93;100.00;97555.00;5019052;28;20040;-82
2022/01/02 05:34:55;;;;;;;6.45;4.20;;;5.70;99.90;;;5.04;100.00;97565.31;5036817;28;20037;-81
2022/01/02 05:37:21;;;;;;;6.57;4.18;;;5.70;99.90;;;5.03;100.00;97553.16;5031588;28;20704;-81
2022/01/02 05:39:46;;;;;;;6.43;3.92;;;5.80;99.90;;;5.09;100.00;97551.31;5040337;28;20037;-81
2022/01/02 05:42:12;;;;;;;5.95;3.95;;;5.80;99.90;;;5.08;100.00;97546.09;5034620;28;20037;-81
2022/01/02 05:44:38;;;;;;;6.68;4.25;;;5.90;99.90;;;5.15;100.00;97546.00;5034398;28;20037;-81
2022/01/02 05:47:04;;;;;;;5.35;3.53;;;5.90;99.90;;;5.23;100.00;97547.66;5019444;28;20029;-81
2022/01/02 05:49:29;;;;;;;5.70;3.83;;;6.00;99.90;;;5.24;100.00;97542.41;5006211;28;20037;-81
2022/01/02 05:51:55;;;;;;;4.90;3.72;;;6.00;99.90;;;5.27;100.00;97544.13;5027308;28;20490;-81
2022/01/02 05:54:21;;;;;;;7.03;4.20;;;6.00;99.90;;;5.28;100.00;97540.63;5025898;28;20213;-81
2022/01/02 05:56:46;;;;;;;5.85;3.70;;;6.00;99.90;;;5.26;100.00;97535.41;5025948;28;20072;-81
2022/01/02 05:59:12;;;;;;;7.15;3.97;;;6.00;99.90;;;5.26;100.00;97537.16;5021007;28;20056;-81
2022/01/02 06:01:38;;;;;;;4.55;3.63;;;6.00;99.90;;;5.11;100.00;97509.47;5022775;28;20103;-81
2022/01/02 06:04:03;;;;;;;7.53;3.95;;;6.00;99.90;;;5.22;100.00;97538.94;5020295;28;20034;-80
2022/01/02 06:06:29;;;;;;;4.57;3.78;;;5.90;99.90;;;5.17;100.00;97530.31;5021323;28;20469;-80
2022/01/02 06:08:55;;;;;;;6.03;3.78;;;6.00;99.90;;;5.13;100.00;97515.53;5008501;28;20155;-81
2022/01/02 06:11:20;;;;;;;5.72;3.53;;;6.00;99.90;;;5.21;100.00;97526.75;5023811;28;20049;-81
2022/01/02 06:13:46;;;;;;;6.97;3.35;;;5.90;99.90;;;5.14;100.00;97507.66;5023471;28;20478;-81
2022/01/02 06:16:12;;;;;;;6.18;4.05;;;5.90;99.90;;;5.13;100.00;97515.53;4992763;28;20399;-81
2022/01/02 06:18:38;;;;;;;5.20;3.78;;;5.90;99.90;;;5.12;100.00;97506.84;5006733;28;20495;-81
2022/01/02 06:21:04;;;;;;;5.43;3.53;;;5.90;99.90;;;5.14;100.00;97504.19;5006438;28;20040;-81
2022/01/02 06:23:30;;;;;;;7.15;4.10;;;5.90;99.90;;;5.22;100.00;97520.63;5033146;28;20434;-81
2022/01/02 06:25:55;;;;;;;5.07;3.60;;;6.00;99.90;;;5.19;100.00;97505.00;5008803;28;20506;-81
2022/01/02 06:28:21;;;;;;;7.13;4.03;;;6.00;99.90;;;5.20;100.00;97514.56;5023667;28;20042;-81
2022/01/02 06:30:47;;;;;;;6.10;3.60;;;5.90;99.90;;;5.12;100.00;97501.59;5005146;28;20586;-81
2022/01/02 06:33:13;;;;;;;6.07;4.20;;;5.90;99.90;;;5.09;100.00;97511.22;5020453;28;20040;-81
2022/01/02 06:35:38;;;;;;;5.85;4.18;;;5.80;99.90;;;5.03;100.00;97493.03;5004027;28;20533;-81
2022/01/02 06:38:17;;;;;;;6.60;4.30;;;5.80;99.90;;;5.02;100.00;97499.97;5018375;28;20041;-81
2022/01/02 06:40:43;;;;;;;5.57;4.32;;;5.80;99.90;;;5.08;100.00;97514.72;5020229;28;20172;-81
2022/01/02 06:43:10;;;;;;;8.25;3.75;;;5.80;99.90;;;4.96;100.00;97500.94;5039259;28;20021;-80
2022/01/02 06:45:36;;;;;;;6.70;3.97;;;5.80;99.90;;;5.07;100.00;97515.63;5039501;28;20040;-81
2022/01/02 06:48:03;;;;;;;5.32;3.92;;;5.80;99.90;;;5.13;100.00;97515.53;4997605;28;20363;-81
2022/01/02 06:50:30;;;;;;;5.25;3.70;;;5.80;99.90;;;5.15;100.00;97513.75;5014242;28;20040;-81
2022/01/02 06:52:55;;;;;;;4.70;3.47;;;5.90;99.90;;;5.24;100.00;97511.03;5035447;28;20040;-81
2022/01/02 06:55:21;;;;;;;6.80;3.80;;;5.90;99.90;;;5.23;100.00;97500.59;5015025;28;20029;-81
2022/01/02 06:57:47;;;;;;;6.90;3.17;;;6.00;99.90;;;5.26;100.00;97497.94;5016012;28;20060;-81
2022/01/02 07:00:13;;;;;;;5.80;3.58;;;6.00;99.90;;;5.35;100.00;97490.81;4997361;28;20746;-81
2022/01/02 07:02:38;;;;;;;5.03;3.08;;;6.10;99.90;;;5.41;100.00;97496.84;5030071;28;20040;-81
2022/01/02 07:05:05;;;;;;;6.03;3.78;;;6.10;99.90;;;5.40;100.00;97492.50;5013531;28;20391;-81
2022/01/02 07:07:30;;;;;;;5.32;3.75;;;6.10;99.90;;;5.25;100.00;97464.81;5018707;28;20033;-80
2022/01/02 07:09:56;;;;;;;5.53;4.03;;;6.10;99.90;;;5.35;100.00;97482.13;5029811;28;20097;-81
2022/01/02 07:12:23;;;;;;;4.53;3.63;;;6.10;99.90;;;5.35;100.00;97484.72;5013909;28;20089;-80
2022/01/02 07:14:52;;;;;;;4.93;3.70;;;6.10;99.90;;;5.29;100.00;97482.19;5028379;28;20025;-80
2022/01/02 07:17:18;;;;;;;6.43;3.67;;;6.10;99.90;;;5.38;100.00;97481.19;5028922;28;20037;-80
2022/01/02 07:19:44;;;;;;;6.43;3.50;;;6.10;99.90;;;5.43;100.00;97485.47;5012189;28;20164;-80
2022/01/02 07:22:10;;;;;;;4.30;3.15;;;6.10;99.90;;;5.40;100.00;97480.31;4997860;28;20078;-80
2022/01/02 07:24:36;;;;;;;3.78;2.85;;;6.20;99.90;;;5.56;100.00;97491.38;5019683;28;20036;-80
2022/01/02 07:27:01;;;;;;;4.55;3.28;;;6.20;99.90;;;5.64;100.00;97476.44;5025042;28;20029;-80
2022/01/02 07:29:27;;;;;;;4.93;2.80;;;6.30;99.90;;;5.58;100.00;97467.81;5003808;28;20041;-80
2022/01/02 07:31:53;;;;;;;5.20;3.00;;;6.30;99.90;;;5.66;100.00;97472.03;5005949;28;20659;-80
2022/01/02 07:34:18;;;;;;;4.43;2.97;;;6.30;99.90;;;5.66;100.00;97477.25;5022954;28;20033;-80
2022/01/02 07:36:44;;;;;;;4.22;3.00;;;6.30;99.90;;;5.69;100.00;97487.69;5006397;28;20437;-80
2022/01/02 07:39:14;;;;;;;4.80;2.67;;;6.30;99.90;;;5.68;100.00;97487.72;5010898;28;20386;-80
2022/01/02 07:41:41;;;;;;;4.72;3.10;;;6.30;99.90;;;5.60;100.00;97484.34;5017991;28;20120;-80
2022/01/02 07:44:07;;;;;;;4.75;3.08;;;6.30;99.90;;;5.67;100.00;97496.44;4992953;28;20914;-80
2022/01/02 07:46:34;;;;;;;4.40;3.17;;;6.30;99.90;;;5.68;100.00;97506.03;5007914;28;20044;-80
2022/01/02 07:49:00;;;;;;;3.63;2.75;;;6.30;99.90;;;5.63;100.00;97489.53;5005849;28;20033;-80
2022/01/02 07:51:26;;;;;;;4.68;2.92;;;6.30;99.90;;;5.66;100.00;97477.25;5005730;28;20408;-80
2022/01/02 07:53:52;;;;;;;5.18;2.80;;;6.30;99.90;;;5.73;100.00;97491.97;5021104;28;20486;-80
2022/01/02 07:56:17;;;;;;;3.63;2.72;;;6.40;99.90;;;5.81;100.00;97501.47;5000266;28;20029;-80
2022/01/02 07:58:43;;;;;;;5.22;3.08;;;6.40;99.90;;;5.87;100.00;97499.59;4999837;28;21268;-80
2022/01/02 08:01:09;;;;;;;4.03;2.72;;;6.40;99.90;;;5.84;100.00;97491.81;4999718;28;20041;-80
2022/01/02 08:03:35;;;;;;;4.63;2.85;;;6.50;99.90;;;5.85;100.00;97466.47;5002007;28;20448;-80
2022/01/02 08:06:01;;;;;;;5.57;2.20;;;6.60;99.90;;;6.02;100.00;97487.19;5023262;28;20041;-80
2022/01/02 08:08:26;;;;;;;4.15;2.40;;;6.70;99.90;;;6.16;100.00;97494.81;5019294;28;20064;-80
2022/01/02 08:10:52;;;;;;;4.10;2.53;;;6.80;99.90;;;6.22;100.00;97490.28;5002895;28;20038;-80
2022/01/02 08:13:18;;;;;;;5.82;2.40;;;6.90;99.90;;;6.24;100.00;97474.56;4984432;28;20030;-80
2022/01/02 08:15:43;;;;;;;4.70;2.85;;;6.90;99.90;;;6.33;100.00;97490.09;5010163;28;20171;-80
2022/01/02 08:18:13;;;;;;;4.28;2.78;;;7.00;99.90;;;6.45;100.00;97500.34;5011557;28;20057;-80
2022/01/02 08:20:40;;;;;;;4.50;2.88;;;7.00;99.90;;;6.50;100.00;97495.03;5016168;28;20103;-80
2022/01/02 08:23:06;;;;;;;4.15;2.80;;;7.10;99.90;;;6.60;100.00;97482.59;5026761;28;20500;-80
2022/01/02 08:25:32;;;;;;;5.47;2.40;;;7.20;99.90;;;6.67;100.00;97476.34;5022329;28;20034;-80
2022/01/02 08:27:58;;;;;;;3.83;2.83;;;7.30;99.90;;;6.87;100.00;97489.94;5027576;28;20498;-80
2022/01/02 08:30:24;;;;;;;3.58;2.83;;;7.50;99.90;;;6.90;100.00;97469.78;4989826;28;20478;-80
2022/01/02 08:32:50;;;;;;;3.50;2.28;;;7.60;99.90;;;7.21;100.00;97489.22;5006242;28;20065;-80
2022/01/02 08:35:15;;;;;;;4.07;2.90;;;7.80;99.90;;;7.35;100.00;97506.41;5008838;28;20037;-80
2022/01/02 08:37:41;;;;;;;5.45;3.03;;;7.90;99.90;;;7.40;100.00;97497.50;4992065;28;20399;-80
2022/01/02 08:40:08;;;;;;;4.93;3.08;;;7.90;99.90;;;7.47;100.00;97481.66;5001610;28;20041;-80
2022/01/02 08:42:34;;;;;;;3.75;2.83;;;8.00;99.90;;;7.54;100.00;97484.09;5006459;28;20550;-80
2022/01/02 08:45:00;;;;;;;5.70;3.40;;;8.10;99.90;;;7.57;100.00;97483.13;5005018;28;20041;-80
2022/01/02 08:47:25;;;;;;;5.85;3.55;;;8.10;99.90;;;7.65;100.00;97491.72;5021864;28;20037;-80
2022/01/02 08:49:51;;;;;;;4.00;2.90;;;8.10;99.90;;;7.65;100.00;97478.59;5007381;28;20038;-80
2022/01/02 08:52:19;;;;;;;5.95;3.30;;;8.30;99.90;;;7.75;100.00;97472.22;5028165;28;20034;-80
2022/01/02 08:54:44;;;;;;;4.18;3.53;;;8.30;99.90;;;7.97;100.00;97482.19;5012149;28;20025;-80
2022/01/02 08:57:10;;;;;;;4.07;3.20;;;8.50;99.90;;;8.09;100.00;97488.88;5009617;28;20090;-80
2022/01/02 08:59:36;;;;;;;6.28;3.08;;;8.60;99.90;;;8.12;100.00;97489.66;4997630;28;20072;-80
2022/01/02 09:02:02;;;;;;;4.72;3.33;;;8.60;99.90;;;8.08;100.00;97481.91;5007659;28;20028;-80
2022/01/02 09:04:28;;;;;;;4.47;3.15;;;8.70;99.90;;;8.09;100.00;97484.47;5014907;28;20447;-80
2022/01/02 09:06:54;;;;;;;4.00;2.80;;;8.80;99.90;;;8.28;100.00;97502.41;5030218;28;20036;-80
2022/01/02 09:09:19;;;;;;;5.25;2.70;;;8.80;99.90;;;8.28;100.00;97494.53;5030046;28;20116;-81
2022/01/02 09:11:46;;;;;;;3.80;2.95;;;8.90;99.90;;;8.48;100.00;97501.91;5030017;28;20025;-80
2022/01/02 09:14:11;;;;;;;5.22;3.08;;;9.00;99.90;;;8.47;100.00;97493.16;5012639;28;20240;-80
2022/01/02 09:16:39;;;;;;;5.03;3.83;;;9.00;99.90;;;8.55;100.00;97498.22;5026983;28;20025;-80
2022/01/02 09:19:05;;;;;;;4.00;2.92;;;9.10;99.90;;;8.58;100.00;97477.09;5015927;28;20026;-80
2022/01/02 09:21:31;;;;;;;5.43;3.28;;;9.10;99.90;;;8.72;100.00;97496.00;5013805;28;20040;-80
2022/01/02 09:23:57;;;;;;;6.22;3.78;;;9.20;99.90;;;8.76;100.00;97487.09;5012905;28;20407;-80
2022/01/02 09:26:23;;;;;;;4.72;3.28;;;9.30;99.90;;;8.92;100.00;97500.69;5031460;28;20029;-80
2022/01/02 09:28:48;;;;;;;5.07;3.38;;;9.40;99.90;;;9.00;100.00;97487.28;5031263;28;20445;-81
2022/01/02 09:31:14;;;;;;;5.30;3.40;;;9.50;99.90;;;9.02;100.00;97490.75;5008395;28;20511;-80
2022/01/02 09:33:40;;;;;;;8.25;3.55;;;9.70;99.90;;;9.19;100.00;97495.53;5017016;28;20041;-81
2022/01/02 09:36:05;;;;;;;5.32;3.70;;;9.80;99.90;;;9.16;98.77;97477.19;5009434;28;20037;-80
2022/01/02 09:38:31;;;;;;;6.10;4.10;;;9.80;99.90;;;9.28;99.43;97497.88;5017481;28;20040;-80
2022/01/02 09:40:59;;;;;;;4.90;3.35;;;9.90;99.90;;;9.44;99.08;97514.06;5029914;28;20029;-81
2022/01/02 09:43:26;;;;;;;4.30;2.97;;;9.90;99.90;;;9.42;98.79;97513.25;5012947;28;20398;-81
2022/01/02 09:45:52;;;;;;;4.63;3.08;;;10.00;99.90;;;9.48;98.55;97507.78;5043115;28;20094;-81
2022/01/02 09:48:18;;;;;;;4.22;3.03;;;10.10;99.90;;;9.56;98.01;97512.81;5028466;28;20037;-79
2022/01/02 09:50:47;;;;;;;4.78;3.25;;;10.10;99.90;;;9.74;97.59;97512.25;5033164;28;20053;-82
2022/01/02 09:53:13;;;;;;;4.20;2.67;;;10.20;99.90;;;9.75;95.86;97495.53;5015652;28;20081;-80
2022/01/02 09:55:40;;;;;;;3.97;2.55;;;10.30;99.90;;;9.87;95.45;97502.19;5021203;28;20022;-81
2022/01/02 09:58:11;;;;;;;4.22;1.60;;;10.40;99.90;;;10.03;92.87;97491.13;4996658;28;20724;-82
2022/01/02 10:00:39;;;;;;;2.00;1.45;;;10.60;99.90;;;10.23;90.31;97493.97;5033981;28;20044;-81
2022/01/02 10:03:08;;;;;;;2.15;1.50;;;10.70;99.90;;;10.30;87.16;97484.94;5035508;28;20074;-81
2022/01/02 10:05:56;;;;;;;2.17;1.27;;;10.80;99.90;;;10.48;86.75;97494.00;5015349;28;20048;-81
2022/01/02 10:08:30;;;;;;;2.47;1.30;;;10.90;99.90;;;10.61;86.78;97491.78;5017296;28;20030;-80
2022/01/02 10:11:18;;;;;;;1.90;1.20;;;11.10;99.90;;;10.64;85.69;97472.34;5028780;28;20085;-81
2022/01/02 10:13:46;;;;;;;1.85;1.13;;;11.20;99.90;;;10.81;84.01;97487.56;5015105;28;20065;-82
2022/01/02 10:16:36;;;;;;;1.73;1.00;;;11.30;99.90;;;10.86;83.02;97493.56;4997270;28;20026;-81
2022/01/02 10:19:29;;;;;;;1.85;1.10;;;11.40;99.90;;;10.85;81.55;97484.75;5028171;28;20032;-81
2022/01/02 10:22:05;;;;;;;4.60;1.35;;;11.30;99.90;;;10.71;83.30;97468.56;5029971;28;20395;-80
2022/01/02 10:24:46;;;;;;;1.67;1.17;;;11.30;99.90;;;10.65;83.73;97487.28;4996938;28;20518;-81
2022/01/02 10:27:15;;;;;;;2.75;1.70;;;11.20;99.90;;;10.45;83.37;97478.28;5032279;28;20030;-81
2022/01/02 10:29:58;;;;;;;3.20;2.00;;;11.00;99.90;;;10.31;84.88;97465.56;5032123;28;20029;-81
2022/01/02 10:32:32;;;;;;;2.42;1.58;;;10.90;99.90;;;10.34;83.81;97469.00;5014969;28;20059;-81
2022/01/02 10:35:08;;;;;;;2.22;1.60;;;10.90;99.90;;;10.28;84.13;97455.13;5011186;28;20502;-81
2022/01/02 10:37:34;;;;;;;1.73;1.40;;;10.90;99.90;;;10.29;83.40;97446.28;5028620;28;20261;-81
2022/01/02 10:40:00;;;;;;;4.35;2.72;;;10.90;99.90;;;10.38;87.95;97450.41;5027307;28;20088;-81